Flight Track Log - Related Links

Times and Time Zones

All times are in EDT time to prevent confusion due to time zone crossing. See the THY1074 flight status page for this flight to view local times or setup timezone preferences in your user account.


Time Position Orientation Groundspeed Altitude Reporting Facility
EDT Latitude Longitude Course Direction KTS MPH feet Rate Location/Type
Mon 03:32:00 AM 41.3549 22.5824 91° East  Level Estimated
Mon 03:33:00 AM 41.3503 22.7185 93° East  Level Estimated
Mon 03:34:00 AM 41.3455 22.8546 93° East  Level Estimated
Mon 03:35:00 AM 41.3405 22.9907 93° East  Level Estimated
Mon 03:36:00 AM 41.3354 23.1268 93° East  Level Estimated
Mon 03:37:00 AM 41.3302 23.2628 93° East  Level Estimated
Mon 03:38:00 AM 41.3248 23.3988 93° East  Level Estimated
Mon 03:39:00 AM 41.3192 23.5348 93° East  Level Estimated
Mon 03:40:00 AM 41.3134 23.6708 93° East  Level Estimated
Mon 03:41:00 AM 41.3075 23.8067 93° East  Level Estimated
Mon 03:42:00 AM 41.3015 23.9426 93° East  Level Estimated
Mon 03:43:00 AM 41.2953 24.0785 93° East  Level Estimated
Mon 03:44:00 AM 41.2889 24.2144 94° East  Level Estimated
Mon 03:45:00 AM 41.2823 24.3502 94° East  Level Estimated
Mon 03:46:00 AM 41.2757 24.4860 94° East  Level Estimated
Mon 03:47:00 AM 41.2688 24.6218 94° East  Level Estimated
Mon 03:48:00 AM 41.2618 24.7576 94° East  Level Estimated
Mon 03:49:00 AM 41.2546 24.8933 94° East  Level Estimated
Mon 03:50:00 AM 41.2473 25.0290 94° East  Level Estimated
Mon 03:51:00 AM 41.2398 25.1646 94° East  Level Estimated
Mon 03:52:00 AM 41.2321 25.3003 94° East  Level Estimated
Mon 03:53:00 AM 41.2243 25.4359 94° East  Level Estimated
Mon 03:54:00 AM 41.2163 25.5714 94° East  Level Estimated
Mon 03:55:00 AM 41.2082 25.7070 95° East  Level Estimated
Mon 03:56:00 AM 41.1999 25.8425 95° East  Level Estimated
Mon 03:57:00 AM 41.1915 25.9779 95° East  Level Estimated
Mon 03:58:00 AM 41.1829 26.1134 95° East  Level Estimated
Mon 03:59:00 AM 41.1740 26.2508 95° East  Level Estimated
Mon 04:00:00 AM 41.1649 26.3882 95° East  Level Estimated
Mon 04:01:00 AM 41.1557 26.5256 95° East  Level Estimated
Mon 04:02:00 AM 41.1463 26.6629 95° East  Level Estimated
Mon 04:03:00 AM 41.1367 26.8002 95° East  Level Estimated
Mon 04:04:00 AM 41.1270 26.9375 95° East  Level Estimated
Mon 04:05:00 AM 41.1171 27.0747 95° East  Level Estimated
Mon 04:06:00 AM 41.1071 27.2119 96° East  Level Estimated
Mon 04:07:00 AM 41.0969 27.3490 96° East  Level Estimated
Mon 04:08:00 AM 41.0865 27.4861 96° East  Level Estimated
Mon 04:09:00 AM 41.0760 27.6231 96° East  Level Estimated
Mon 04:10:00 AM 41.0653 27.7601 96° East  Level Estimated
Mon 04:11:00 AM 41.0545 27.8971 96° East  Level Estimated
Mon 04:12:00 AM 41.0434 28.0340 96° East  Level Estimated
Mon 04:13:00 AM 41.0323 28.1708 96° East  Level Estimated
Mon 04:14:00 AM 41.0209 28.3076 96° East  Level Estimated
Mon 04:15:00 AM 41.0094 28.4444 96° East  Level Estimated
Mon 04:16:00 AM 40.9978 28.5811 96° East  Level Estimated
Mon 04:17:00 AM 40.9859 28.7178 96° East  Level Estimated
Mon 04:18:00 AM 40.9769 28.8211 97° East  Level Estimated
Mon 04:19:00 AM 40.9769 28.8211 21° North  Level Estimated
Mon 04:20:00 AM 40.9769 28.8211 21° North  Level Estimated
Mon 04:21:00 AM 40.9769 28.8211 21° North  Level Estimated
Mon 04:22:00 AM 40.9769 28.8211 21° North  Level Estimated
Mon 04:23:00 AM 40.9769 28.8211 21° North  Level Estimated
Mon 04:24:00 AM 40.9769 28.8211 21° North  Level Estimated
Mon 04:25:00 AM 40.9769 28.8211 21° North  Level Estimated
Mon 04:26:00 AM 40.9769 28.8211 21° North  Level Estimated
Mon 04:27:00 AM 40.9769 28.8211 21° North  Level Estimated
Mon 04:28:00 AM 40.9769 28.8211 21° North  Level Estimated
Mon 04:29:00 AM 40.9769 28.8211 21° North  Level Estimated
Mon 04:30:00 AM 40.9769 28.8211 21° North  Level Estimated
Mon 04:31:00 AM 40.9769 28.8211 21° North  Level Estimated

Login

Don't have an account? Register now (free) for customized features, flight alerts, and more!